sensor_id;sensor_type;location;lat;lon;timestamp;pressure;altitude;pressure_sealevel;temperature
55038;BMP280;40937;53.594;10.034;2024-03-08T00:01:16;102574.28;;;3.51
55038;BMP280;40937;53.594;10.034;2024-03-08T00:03:45;102570.72;;;3.62
55038;BMP280;40937;53.594;10.034;2024-03-08T00:06:12;102571.00;;;3.49
55038;BMP280;40937;53.594;10.034;2024-03-08T00:08:39;102569.63;;;3.64
55038;BMP280;40937;53.594;10.034;2024-03-08T00:11:06;102569.31;;;3.58
55038;BMP280;40937;53.594;10.034;2024-03-08T00:13:34;102563.28;;;3.57
55038;BMP280;40937;53.594;10.034;2024-03-08T00:16:03;102566.97;;;3.35
55038;BMP280;40937;53.594;10.034;2024-03-08T00:18:30;102558.03;;;3.38
55038;BMP280;40937;53.594;10.034;2024-03-08T00:20:57;102562.28;;;3.39
55038;BMP280;40937;53.594;10.034;2024-03-08T00:23:25;102561.91;;;3.43
55038;BMP280;40937;53.594;10.034;2024-03-08T00:25:54;102563.03;;;3.51
55038;BMP280;40937;53.594;10.034;2024-03-08T00:28:21;102565.22;;;3.55
55038;BMP280;40937;53.594;10.034;2024-03-08T00:30:50;102562.19;;;3.50
55038;BMP280;40937;53.594;10.034;2024-03-08T00:33:19;102564.25;;;3.46
55038;BMP280;40937;53.594;10.034;2024-03-08T00:35:47;102556.97;;;3.50
55038;BMP280;40937;53.594;10.034;2024-03-08T00:38:14;102561.22;;;3.41
55038;BMP280;40937;53.594;10.034;2024-03-08T00:40:41;102563.63;;;3.33
55038;BMP280;40937;53.594;10.034;2024-03-08T00:43:08;102556.78;;;3.32
55038;BMP280;40937;53.594;10.034;2024-03-08T00:45:35;102558.25;;;3.15
55038;BMP280;40937;53.594;10.034;2024-03-08T00:48:04;102550.56;;;3.14
55038;BMP280;40937;53.594;10.034;2024-03-08T00:50:33;102559.63;;;3.19
55038;BMP280;40937;53.594;10.034;2024-03-08T00:53:00;102545.13;;;3.26
55038;BMP280;40937;53.594;10.034;2024-03-08T00:55:27;102550.66;;;3.43
55038;BMP280;40937;53.594;10.034;2024-03-08T00:57:55;102551.31;;;3.45
55038;BMP280;40937;53.594;10.034;2024-03-08T01:00:23;102553.09;;;3.54
55038;BMP280;40937;53.594;10.034;2024-03-08T01:02:50;102543.63;;;3.43
55038;BMP280;40937;53.594;10.034;2024-03-08T01:05:17;102547.31;;;3.31
55038;BMP280;40937;53.594;10.034;2024-03-08T01:07:46;102545.78;;;3.19
55038;BMP280;40937;53.594;10.034;2024-03-08T01:10:13;102542.75;;;3.14
55038;BMP280;40937;53.594;10.034;2024-03-08T01:12:41;102541.81;;;3.15
55038;BMP280;40937;53.594;10.034;2024-03-08T01:15:09;102537.94;;;3.28
55038;BMP280;40937;53.594;10.034;2024-03-08T01:17:37;102531.09;;;3.27
55038;BMP280;40937;53.594;10.034;2024-03-08T01:20:07;102530.41;;;3.25
55038;BMP280;40937;53.594;10.034;2024-03-08T01:22:37;102524.09;;;3.18
55038;BMP280;40937;53.594;10.034;2024-03-08T01:25:06;102521.75;;;3.35
55038;BMP280;40937;53.594;10.034;2024-03-08T01:27:34;102516.53;;;3.35
55038;BMP280;40937;53.594;10.034;2024-03-08T01:30:03;102508.19;;;3.41
55038;BMP280;40937;53.594;10.034;2024-03-08T01:32:30;102504.31;;;3.16
55038;BMP280;40937;53.594;10.034;2024-03-08T01:34:57;102502.00;;;3.22
55038;BMP280;40937;53.594;10.034;2024-03-08T01:37:25;102498.38;;;3.04
55038;BMP280;40937;53.594;10.034;2024-03-08T01:39:52;102500.16;;;2.94
55038;BMP280;40937;53.594;10.034;2024-03-08T01:42:20;102490.13;;;2.99
55038;BMP280;40937;53.594;10.034;2024-03-08T01:44:48;102501.09;;;2.92
55038;BMP280;40937;53.594;10.034;2024-03-08T01:47:15;102487.13;;;3.03
55038;BMP280;40937;53.594;10.034;2024-03-08T01:49:42;102489.03;;;2.91
55038;BMP280;40937;53.594;10.034;2024-03-08T01:52:10;102484.50;;;2.94
55038;BMP280;40937;53.594;10.034;2024-03-08T01:54:37;102472.53;;;2.91
55038;BMP280;40937;53.594;10.034;2024-03-08T01:57:06;102474.44;;;2.79
55038;BMP280;40937;53.594;10.034;2024-03-08T01:59:35;102467.78;;;2.96
55038;BMP280;40937;53.594;10.034;2024-03-08T02:02:04;102472.81;;;2.88
55038;BMP280;40937;53.594;10.034;2024-03-08T02:04:34;102475.22;;;2.70
55038;BMP280;40937;53.594;10.034;2024-03-08T02:07:02;102460.44;;;2.80
55038;BMP280;40937;53.594;10.034;2024-03-08T02:09:31;102466.69;;;2.68
55038;BMP280;40937;53.594;10.034;2024-03-08T02:11:58;102464.28;;;2.76
55038;BMP280;40937;53.594;10.034;2024-03-08T02:14:30;102463.16;;;2.79
55038;BMP280;40937;53.594;10.034;2024-03-08T02:17:01;102464.53;;;2.63
55038;BMP280;40937;53.594;10.034;2024-03-08T02:19:28;102458.47;;;2.63
55038;BMP280;40937;53.594;10.034;2024-03-08T02:21:57;102462.06;;;2.62
55038;BMP280;40937;53.594;10.034;2024-03-08T02:24:25;102451.63;;;2.62
55038;BMP280;40937;53.594;10.034;2024-03-08T02:26:52;102461.78;;;2.65
55038;BMP280;40937;53.594;10.034;2024-03-08T02:29:20;102448.56;;;2.57
55038;BMP280;40937;53.594;10.034;2024-03-08T02:31:47;102452.41;;;2.52
55038;BMP280;40937;53.594;10.034;2024-03-08T02:34:15;102450.50;;;2.54
55038;BMP280;40937;53.594;10.034;2024-03-08T02:36:42;102452.22;;;2.44
55038;BMP280;40937;53.594;10.034;2024-03-08T02:39:10;102460.91;;;2.54
55038;BMP280;40937;53.594;10.034;2024-03-08T02:41:37;102442.56;;;2.66
55038;BMP280;40937;53.594;10.034;2024-03-08T02:44:04;102454.38;;;2.60
55038;BMP280;40937;53.594;10.034;2024-03-08T02:46:33;102449.94;;;2.51
55038;BMP280;40937;53.594;10.034;2024-03-08T02:49:01;102449.09;;;2.50
55038;BMP280;40937;53.594;10.034;2024-03-08T02:51:29;102449.16;;;2.60
55038;BMP280;40937;53.594;10.034;2024-03-08T02:53:56;102447.63;;;2.58
55038;BMP280;40937;53.594;10.034;2024-03-08T02:56:25;102443.69;;;2.63
55038;BMP280;40937;53.594;10.034;2024-03-08T02:58:52;102439.19;;;2.44
55038;BMP280;40937;53.594;10.034;2024-03-08T03:01:19;102435.38;;;2.48
55038;BMP280;40937;53.594;10.034;2024-03-08T03:03:48;102426.25;;;2.33
55038;BMP280;40937;53.594;10.034;2024-03-08T03:06:15;102433.13;;;2.34
55038;BMP280;40937;53.594;10.034;2024-03-08T03:08:42;102431.19;;;2.36
55038;BMP280;40937;53.594;10.034;2024-03-08T03:11:11;102429.16;;;2.40
55038;BMP280;40937;53.594;10.034;2024-03-08T03:13:40;102427.06;;;2.33
55038;BMP280;40937;53.594;10.034;2024-03-08T03:16:08;102424.56;;;2.22
55038;BMP280;40937;53.594;10.034;2024-03-08T03:18:36;102422.44;;;2.37
55038;BMP280;40937;53.594;10.034;2024-03-08T03:21:03;102421.22;;;2.41
55038;BMP280;40937;53.594;10.034;2024-03-08T03:23:33;102419.66;;;2.29
55038;BMP280;40937;53.594;10.034;2024-03-08T03:26:00;102425.63;;;2.20
55038;BMP280;40937;53.594;10.034;2024-03-08T03:28:28;102426.16;;;2.13
55038;BMP280;40937;53.594;10.034;2024-03-08T03:30:57;102422.59;;;2.14
55038;BMP280;40937;53.594;10.034;2024-03-08T03:33:25;102424.81;;;2.19
55038;BMP280;40937;53.594;10.034;2024-03-08T03:35:53;102432.84;;;2.37
55038;BMP280;40937;53.594;10.034;2024-03-08T03:38:20;102420.44;;;2.20
55038;BMP280;40937;53.594;10.034;2024-03-08T03:40:49;102423.97;;;2.09
55038;BMP280;40937;53.594;10.034;2024-03-08T03:43:18;102425.84;;;2.28
55038;BMP280;40937;53.594;10.034;2024-03-08T03:45:45;102422.63;;;2.45
55038;BMP280;40937;53.594;10.034;2024-03-08T03:48:14;102419.66;;;2.29
55038;BMP280;40937;53.594;10.034;2024-03-08T03:50:41;102417.91;;;2.08
55038;BMP280;40937;53.594;10.034;2024-03-08T03:53:08;102411.88;;;2.08
55038;BMP280;40937;53.594;10.034;2024-03-08T03:55:35;102408.72;;;2.04
55038;BMP280;40937;53.594;10.034;2024-03-08T03:58:04;102408.25;;;1.99
55038;BMP280;40937;53.594;10.034;2024-03-08T04:00:31;102414.19;;;2.01
55038;BMP280;40937;53.594;10.034;2024-03-08T04:02:58;102416.53;;;2.04
55038;BMP280;40937;53.594;10.034;2024-03-08T04:05:28;102411.00;;;1.97
55038;BMP280;40937;53.594;10.034;2024-03-08T04:07:56;102412.63;;;1.89
55038;BMP280;40937;53.594;10.034;2024-03-08T04:10:24;102414.06;;;2.03
55038;BMP280;40937;53.594;10.034;2024-03-08T04:12:51;102416.69;;;1.91
55038;BMP280;40937;53.594;10.034;2024-03-08T04:15:18;102425.22;;;1.93
55038;BMP280;40937;53.594;10.034;2024-03-08T04:17:46;102415.38;;;1.97
55038;BMP280;40937;53.594;10.034;2024-03-08T04:20:13;102414.50;;;2.08
55038;BMP280;40937;53.594;10.034;2024-03-08T04:22:42;102418.88;;;2.07
55038;BMP280;40937;53.594;10.034;2024-03-08T04:25:10;102410.16;;;1.87
55038;BMP280;40937;53.594;10.034;2024-03-08T04:27:38;102412.16;;;1.84
55038;BMP280;40937;53.594;10.034;2024-03-08T04:30:07;102410.53;;;1.83
55038;BMP280;40937;53.594;10.034;2024-03-08T04:32:34;102414.50;;;1.87
55038;BMP280;40937;53.594;10.034;2024-03-08T04:35:01;102408.75;;;1.93
55038;BMP280;40937;53.594;10.034;2024-03-08T04:37:29;102400.25;;;1.81
55038;BMP280;40937;53.594;10.034;2024-03-08T04:39:58;102396.16;;;1.67
55038;BMP280;40937;53.594;10.034;2024-03-08T04:42:26;102395.44;;;1.65
55038;BMP280;40937;53.594;10.034;2024-03-08T04:44:54;102402.31;;;1.66
55038;BMP280;40937;53.594;10.034;2024-03-08T04:47:22;102394.44;;;1.77
55038;BMP280;40937;53.594;10.034;2024-03-08T04:49:49;102393.31;;;1.70
55038;BMP280;40937;53.594;10.034;2024-03-08T04:52:16;102391.91;;;1.66
55038;BMP280;40937;53.594;10.034;2024-03-08T04:54:43;102386.94;;;1.63
55038;BMP280;40937;53.594;10.034;2024-03-08T04:57:12;102390.50;;;1.62
55038;BMP280;40937;53.594;10.034;2024-03-08T04:59:39;102389.41;;;1.65
55038;BMP280;40937;53.594;10.034;2024-03-08T05:02:09;102381.31;;;1.79
55038;BMP280;40937;53.594;10.034;2024-03-08T05:04:37;102381.66;;;1.86
55038;BMP280;40937;53.594;10.034;2024-03-08T05:07:04;102383.78;;;1.80
55038;BMP280;40937;53.594;10.034;2024-03-08T05:09:31;102381.31;;;1.79
55038;BMP280;40937;53.594;10.034;2024-03-08T05:11:59;102380.00;;;1.94
55038;BMP280;40937;53.594;10.034;2024-03-08T05:14:28;102386.31;;;1.92
55038;BMP280;40937;53.594;10.034;2024-03-08T05:16:56;102378.31;;;1.84
55038;BMP280;40937;53.594;10.034;2024-03-08T05:19:23;102370.09;;;1.78
55038;BMP280;40937;53.594;10.034;2024-03-08T05:21:50;102370.84;;;1.69
55038;BMP280;40937;53.594;10.034;2024-03-08T05:24:17;102371.53;;;1.71
55038;BMP280;40937;53.594;10.034;2024-03-08T05:26:45;102370.41;;;1.64
55038;BMP280;40937;53.594;10.034;2024-03-08T05:29:13;102374.38;;;1.68
55038;BMP280;40937;53.594;10.034;2024-03-08T05:31:46;102366.53;;;1.79
55038;BMP280;40937;53.594;10.034;2024-03-08T05:34:13;102374.38;;;1.68
55038;BMP280;40937;53.594;10.034;2024-03-08T05:36:40;102374.38;;;1.68
55038;BMP280;40937;53.594;10.034;2024-03-08T05:39:10;102367.78;;;1.64
55038;BMP280;40937;53.594;10.034;2024-03-08T05:41:38;102371.84;;;1.57
55038;BMP280;40937;53.594;10.034;2024-03-08T05:44:05;102367.47;;;1.57
55038;BMP280;40937;53.594;10.034;2024-03-08T05:46:32;102365.56;;;1.59
55038;BMP280;40937;53.594;10.034;2024-03-08T05:49:01;102361.84;;;1.73
55038;BMP280;40937;53.594;10.034;2024-03-08T05:51:31;102368.41;;;1.77
55038;BMP280;40937;53.594;10.034;2024-03-08T05:54:00;102360.69;;;1.66
55038;BMP280;40937;53.594;10.034;2024-03-08T05:56:28;102362.09;;;1.70
55038;BMP280;40937;53.594;10.034;2024-03-08T05:58:56;102358.13;;;1.55
55038;BMP280;40937;53.594;10.034;2024-03-08T06:01:24;102359.22;;;1.52
55038;BMP280;40937;53.594;10.034;2024-03-08T06:03:52;102367.13;;;1.51
55038;BMP280;40937;53.594;10.034;2024-03-08T06:06:23;102367.84;;;1.53
55038;BMP280;40937;53.594;10.034;2024-03-08T06:08:50;102363.59;;;1.52
55038;BMP280;40937;53.594;10.034;2024-03-08T06:11:18;102358.22;;;1.65
55038;BMP280;40937;53.594;10.034;2024-03-08T06:13:46;102362.47;;;1.66
55038;BMP280;40937;53.594;10.034;2024-03-08T06:16:14;102365.88;;;1.66
55038;BMP280;40937;53.594;10.034;2024-03-08T06:18:41;102369.22;;;1.57
55038;BMP280;40937;53.594;10.034;2024-03-08T06:21:08;102368.53;;;1.55
55038;BMP280;40937;53.594;10.034;2024-03-08T06:23:38;102372.63;;;1.69
55038;BMP280;40937;53.594;10.034;2024-03-08T06:26:06;102371.75;;;1.79
55038;BMP280;40937;53.594;10.034;2024-03-08T06:28:33;102367.16;;;1.72
55038;BMP280;40937;53.594;10.034;2024-03-08T06:31:02;102365.31;;;1.62
55038;BMP280;40937;53.594;10.034;2024-03-08T06:33:30;102364.94;;;1.67
55038;BMP280;40937;53.594;10.034;2024-03-08T06:35:58;102372.34;;;1.51
55038;BMP280;40937;53.594;10.034;2024-03-08T06:38:25;102372.09;;;1.54
55038;BMP280;40937;53.594;10.034;2024-03-08T06:40:54;102363.72;;;1.50
55038;BMP280;40937;53.594;10.034;2024-03-08T06:43:21;102358.38;;;1.52
55038;BMP280;40937;53.594;10.034;2024-03-08T06:45:50;102356.63;;;1.73
55038;BMP280;40937;53.594;10.034;2024-03-08T06:48:19;102356.38;;;1.76
55038;BMP280;40937;53.594;10.034;2024-03-08T06:50:46;102349.53;;;1.75
55038;BMP280;40937;53.594;10.034;2024-03-08T06:53:14;102352.63;;;1.69
55038;BMP280;40937;53.594;10.034;2024-03-08T06:55:45;102349.13;;;1.59
55038;BMP280;40937;53.594;10.034;2024-03-08T06:58:13;102347.75;;;1.55
55038;BMP280;40937;53.594;10.034;2024-03-08T07:00:42;102353.81;;;1.65
55038;BMP280;40937;53.594;10.034;2024-03-08T07:03:10;102348.38;;;1.68
55038;BMP280;40937;53.594;10.034;2024-03-08T07:05:38;102358.59;;;1.81
55038;BMP280;40937;53.594;10.034;2024-03-08T07:08:06;102354.78;;;1.85
55038;BMP280;40937;53.594;10.034;2024-03-08T07:10:33;102362.03;;;1.81
55038;BMP280;40937;53.594;10.034;2024-03-08T07:13:01;102360.56;;;1.89
55038;BMP280;40937;53.594;10.034;2024-03-08T07:15:30;102361.66;;;1.96
55038;BMP280;40937;53.594;10.034;2024-03-08T07:17:57;102358.16;;;2.07
55038;BMP280;40937;53.594;10.034;2024-03-08T07:20:25;102358.66;;;2.00
55038;BMP280;40937;53.594;10.034;2024-03-08T07:22:52;102350.47;;;2.05
55038;BMP280;40937;53.594;10.034;2024-03-08T07:25:20;102358.94;;;1.97
55038;BMP280;40937;53.594;10.034;2024-03-08T07:27:47;102356.78;;;2.03
55038;BMP280;40937;53.594;10.034;2024-03-08T07:30:15;102358.28;;;2.05
55038;BMP280;40937;53.594;10.034;2024-03-08T07:33:05;102349.16;;;2.11
55038;BMP280;40937;53.594;10.034;2024-03-08T07:35:33;102351.63;;;2.12
55038;BMP280;40937;53.594;10.034;2024-03-08T07:38:03;102345.00;;;2.08
55038;BMP280;40937;53.594;10.034;2024-03-08T07:40:31;102348.03;;;2.13
55038;BMP280;40937;53.594;10.034;2024-03-08T07:42:59;102349.03;;;2.12
55038;BMP280;40937;53.594;10.034;2024-03-08T07:45:26;102349.97;;;2.11
55038;BMP280;40937;53.594;10.034;2024-03-08T07:47:53;102349.19;;;2.21
55038;BMP280;40937;53.594;10.034;2024-03-08T07:50:23;102346.06;;;2.27
55038;BMP280;40937;53.594;10.034;2024-03-08T07:52:50;102349.47;;;2.27
55038;BMP280;40937;53.594;10.034;2024-03-08T07:55:17;102349.34;;;2.29
55038;BMP280;40937;53.594;10.034;2024-03-08T07:57:45;102345.66;;;2.31
55038;BMP280;40937;53.594;10.034;2024-03-08T08:00:14;102343.97;;;2.21
55038;BMP280;40937;53.594;10.034;2024-03-08T08:02:44;102346.19;;;2.25
55038;BMP280;40937;53.594;10.034;2024-03-08T08:05:11;102340.19;;;2.44
55038;BMP280;40937;53.594;10.034;2024-03-08T08:07:44;102344.19;;;2.48
55038;BMP280;40937;53.594;10.034;2024-03-08T08:10:12;102343.81;;;2.53
55038;BMP280;40937;53.594;10.034;2024-03-08T08:12:44;102341.88;;;2.55
55038;BMP280;40937;53.594;10.034;2024-03-08T08:15:12;102344.66;;;2.63
55038;BMP280;40937;53.594;10.034;2024-03-08T08:17:41;102337.00;;;2.62
55038;BMP280;40937;53.594;10.034;2024-03-08T08:20:09;102333.41;;;2.63
55038;BMP280;40937;53.594;10.034;2024-03-08T08:22:37;102340.53;;;2.61
55038;BMP280;40937;53.594;10.034;2024-03-08T08:25:07;102335.84;;;2.74
55038;BMP280;40937;53.594;10.034;2024-03-08T08:27:35;102342.06;;;2.73
55038;BMP280;40937;53.594;10.034;2024-03-08T08:30:04;102339.72;;;2.80
55038;BMP280;40937;53.594;10.034;2024-03-08T08:32:34;102337.00;;;2.91
55038;BMP280;40937;53.594;10.034;2024-03-08T08:35:02;102335.66;;;2.97
55038;BMP280;40937;53.594;10.034;2024-03-08T08:37:30;102334.25;;;3.02
55038;BMP280;40937;53.594;10.034;2024-03-08T08:39:57;102334.53;;;3.09
55038;BMP280;40937;53.594;10.034;2024-03-08T08:42:32;102328.09;;;3.13
55038;BMP280;40937;53.594;10.034;2024-03-08T08:44:59;102332.31;;;3.14
55038;BMP280;40937;53.594;10.034;2024-03-08T08:47:27;102326.25;;;3.33
55038;BMP280;40937;53.594;10.034;2024-03-08T08:49:54;102325.69;;;3.39
55038;BMP280;40937;53.594;10.034;2024-03-08T08:52:21;102327.63;;;3.47
55038;BMP280;40937;53.594;10.034;2024-03-08T08:54:49;102326.88;;;3.55
55038;BMP280;40937;53.594;10.034;2024-03-08T08:57:16;102319.06;;;3.64
55038;BMP280;40937;53.594;10.034;2024-03-08T08:59:45;102320.41;;;3.69
55038;BMP280;40937;53.594;10.034;2024-03-08T09:02:12;102316.72;;;3.71
55038;BMP280;40937;53.594;10.034;2024-03-08T09:04:42;102315.97;;;3.79
55038;BMP280;40937;53.594;10.034;2024-03-08T09:07:10;102308.25;;;3.87
55038;BMP280;40937;53.594;10.034;2024-03-08T09:09:39;102310.75;;;3.79
55038;BMP280;40937;53.594;10.034;2024-03-08T09:12:08;102299.19;;;3.81
55038;BMP280;40937;53.594;10.034;2024-03-08T09:14:40;102295.59;;;3.92
55038;BMP280;40937;53.594;10.034;2024-03-08T09:17:08;102309.00;;;4.07
55038;BMP280;40937;53.594;10.034;2024-03-08T09:19:36;102300.44;;;4.15
55038;BMP280;40937;53.594;10.034;2024-03-08T09:22:03;102290.00;;;4.15
55038;BMP280;40937;53.594;10.034;2024-03-08T09:24:31;102285.56;;;4.15
55038;BMP280;40937;53.594;10.034;2024-03-08T09:26:58;102280.06;;;4.18
55038;BMP280;40937;53.594;10.034;2024-03-08T09:29:25;102283.16;;;4.22
55038;BMP280;40937;53.594;10.034;2024-03-08T09:31:52;102281.91;;;4.26
55038;BMP280;40937;53.594;10.034;2024-03-08T09:34:21;102274.38;;;4.23
55038;BMP280;40937;53.594;10.034;2024-03-08T09:36:48;102263.63;;;4.26
55038;BMP280;40937;53.594;10.034;2024-03-08T09:39:16;102263.44;;;4.37
55038;BMP280;40937;53.594;10.034;2024-03-08T09:41:46;102273.81;;;4.47
55038;BMP280;40937;53.594;10.034;2024-03-08T09:44:14;102252.84;;;4.57
55038;BMP280;40937;53.594;10.034;2024-03-08T09:46:42;102253.88;;;4.64
55038;BMP280;40937;53.594;10.034;2024-03-08T09:49:10;102245.19;;;4.82
55038;BMP280;40937;53.594;10.034;2024-03-08T09:51:39;102253.91;;;4.90
55038;BMP280;40937;53.594;10.034;2024-03-08T09:54:07;102244.28;;;4.91
55038;BMP280;40937;53.594;10.034;2024-03-08T09:56:35;102245.25;;;4.90
55038;BMP280;40937;53.594;10.034;2024-03-08T09:59:02;102241.38;;;5.02
55038;BMP280;40937;53.594;10.034;2024-03-08T10:01:46;102226.50;;;5.03
55038;BMP280;40937;53.594;10.034;2024-03-08T10:04:13;102225.84;;;5.01
55038;BMP280;40937;53.594;10.034;2024-03-08T10:06:42;102228.66;;;5.07
55038;BMP280;40937;53.594;10.034;2024-03-08T10:09:09;102217.59;;;5.13
55038;BMP280;40937;53.594;10.034;2024-03-08T10:11:37;102228.41;;;5.19
55038;BMP280;40937;53.594;10.034;2024-03-08T10:14:05;102218.00;;;5.27
55038;BMP280;40937;53.594;10.034;2024-03-08T10:16:32;102206.91;;;5.33
55038;BMP280;40937;53.594;10.034;2024-03-08T10:18:59;102208.44;;;5.44
55038;BMP280;40937;53.594;10.034;2024-03-08T10:21:27;102206.13;;;5.41
55038;BMP280;40937;53.594;10.034;2024-03-08T10:23:57;102203.69;;;5.47
55038;BMP280;40937;53.594;10.034;2024-03-08T10:26:25;102205.34;;;5.57
55038;BMP280;40937;53.594;10.034;2024-03-08T10:28:52;102195.22;;;5.62
55038;BMP280;40937;53.594;10.034;2024-03-08T10:31:20;102193.06;;;5.57
55038;BMP280;40937;53.594;10.034;2024-03-08T10:33:47;102185.38;;;5.56
55038;BMP280;40937;53.594;10.034;2024-03-08T10:36:15;102185.44;;;5.64
55038;BMP280;40937;53.594;10.034;2024-03-08T10:38:45;102173.97;;;5.81
55038;BMP280;40937;53.594;10.034;2024-03-08T10:41:15;102167.78;;;5.90
55038;BMP280;40937;53.594;10.034;2024-03-08T10:43:52;102170.56;;;6.05
55038;BMP280;40937;53.594;10.034;2024-03-08T10:46:30;102165.50;;;6.12
55038;BMP280;40937;53.594;10.034;2024-03-08T10:48:57;102157.94;;;6.25
55038;BMP280;40937;53.594;10.034;2024-03-08T10:51:25;102159.75;;;6.25
55038;BMP280;40937;53.594;10.034;2024-03-08T10:53:55;102157.31;;;6.23
55038;BMP280;40937;53.594;10.034;2024-03-08T10:56:25;102146.16;;;6.30
55038;BMP280;40937;53.594;10.034;2024-03-08T10:58:54;102150.41;;;6.39
55038;BMP280;40937;53.594;10.034;2024-03-08T11:01:22;102143.56;;;6.38
55038;BMP280;40937;53.594;10.034;2024-03-08T11:03:50;102137.25;;;6.55
55038;BMP280;40937;53.594;10.034;2024-03-08T11:06:22;102141.53;;;6.56
55038;BMP280;40937;53.594;10.034;2024-03-08T11:08:50;102135.13;;;6.67
55038;BMP280;40937;53.594;10.034;2024-03-08T11:11:26;102132.31;;;6.77
55038;BMP280;40937;53.594;10.034;2024-03-08T11:13:56;102126.53;;;6.81
55038;BMP280;40937;53.594;10.034;2024-03-08T11:16:43;102118.47;;;6.91
55038;BMP280;40937;53.594;10.034;2024-03-08T11:19:25;102119.66;;;6.89
55038;BMP280;40937;53.594;10.034;2024-03-08T11:21:58;102106.94;;;7.00
55038;BMP280;40937;53.594;10.034;2024-03-08T11:24:26;102111.16;;;7.10
55038;BMP280;40937;53.594;10.034;2024-03-08T11:26:58;102104.88;;;7.19
55038;BMP280;40937;53.594;10.034;2024-03-08T11:29:33;102104.03;;;7.27
55038;BMP280;40937;53.594;10.034;2024-03-08T11:32:09;102100.69;;;7.33
55038;BMP280;40937;53.594;10.034;2024-03-08T11:34:37;102098.16;;;7.25
55038;BMP280;40937;53.594;10.034;2024-03-08T11:37:05;102080.03;;;7.30
55038;BMP280;40937;53.594;10.034;2024-03-08T11:39:36;102074.56;;;7.39
55038;BMP280;40937;53.594;10.034;2024-03-08T11:42:05;102082.06;;;7.51
55038;BMP280;40937;53.594;10.034;2024-03-08T11:44:33;102071.13;;;7.62
55038;BMP280;40937;53.594;10.034;2024-03-08T11:47:01;102070.75;;;7.65
55038;BMP280;40937;53.594;10.034;2024-03-08T11:49:31;102078.63;;;7.65
55038;BMP280;40937;53.594;10.034;2024-03-08T11:51:59;102062.72;;;7.67
55038;BMP280;40937;53.594;10.034;2024-03-08T11:54:26;102064.19;;;7.69
55038;BMP280;40937;53.594;10.034;2024-03-08T11:56:53;102058.25;;;7.75
55038;BMP280;40937;53.594;10.034;2024-03-08T11:59:22;102064.03;;;7.86
55038;BMP280;40937;53.594;10.034;2024-03-08T12:01:59;102062.84;;;8.03
55038;BMP280;40937;53.594;10.034;2024-03-08T12:04:27;102062.78;;;8.11
55038;BMP280;40937;53.594;10.034;2024-03-08T12:06:54;102055.88;;;8.10
55038;BMP280;40937;53.594;10.034;2024-03-08T12:09:22;102047.47;;;8.15
55038;BMP280;40937;53.594;10.034;2024-03-08T12:11:49;102054.72;;;8.13
55038;BMP280;40937;53.594;10.034;2024-03-08T12:14:16;102052.38;;;8.18
55038;BMP280;40937;53.594;10.034;2024-03-08T12:16:45;102040.31;;;8.24
55038;BMP280;40937;53.594;10.034;2024-03-08T12:19:14;102037.34;;;8.27
55038;BMP280;40937;53.594;10.034;2024-03-08T12:21:42;102027.31;;;8.37
55038;BMP280;40937;53.594;10.034;2024-03-08T12:24:15;102023.59;;;8.46
55038;BMP280;40937;53.594;10.034;2024-03-08T12:26:46;102022.34;;;8.42
55038;BMP280;40937;53.594;10.034;2024-03-08T12:29:18;102018.59;;;8.51
55038;BMP280;40937;53.594;10.034;2024-03-08T12:31:51;102017.22;;;8.55
55038;BMP280;40937;53.594;10.034;2024-03-08T12:34:18;102004.44;;;8.67
55038;BMP280;40937;53.594;10.034;2024-03-08T12:36:46;101999.59;;;8.71
55038;BMP280;40937;53.594;10.034;2024-03-08T12:39:18;101998.31;;;8.67
55038;BMP280;40937;53.594;10.034;2024-03-08T12:41:48;101990.69;;;8.50
55038;BMP280;40937;53.594;10.034;2024-03-08T12:44:17;101995.81;;;8.58
55038;BMP280;40937;53.594;10.034;2024-03-08T12:46:45;101986.81;;;8.68
55038;BMP280;40937;53.594;10.034;2024-03-08T12:49:14;101976.78;;;8.56
55038;BMP280;40937;53.594;10.034;2024-03-08T12:51:43;101961.13;;;8.70
55038;BMP280;40937;53.594;10.034;2024-03-08T12:54:11;101959.72;;;8.89
55038;BMP280;40937;53.594;10.034;2024-03-08T12:56:39;101952.38;;;8.84
55038;BMP280;40937;53.594;10.034;2024-03-08T12:59:07;101947.22;;;8.98
55038;BMP280;40937;53.594;10.034;2024-03-08T13:01:35;101953.97;;;9.07
55038;BMP280;40937;53.594;10.034;2024-03-08T13:04:04;101953.63;;;9.16
55038;BMP280;40937;53.594;10.034;2024-03-08T13:06:33;101945.56;;;9.18
55038;BMP280;40937;53.594;10.034;2024-03-08T13:09:01;101954.34;;;9.32
55038;BMP280;40937;53.594;10.034;2024-03-08T13:11:31;101937.38;;;9.34
55038;BMP280;40937;53.594;10.034;2024-03-08T13:14:03;101936.56;;;9.34
55038;BMP280;40937;53.594;10.034;2024-03-08T13:16:31;101932.16;;;9.41
55038;BMP280;40937;53.594;10.034;2024-03-08T13:19:00;101935.34;;;9.37
55038;BMP280;40937;53.594;10.034;2024-03-08T13:21:27;101928.94;;;9.46
55038;BMP280;40937;53.594;10.034;2024-03-08T13:23:57;101925.50;;;9.45
55038;BMP280;40937;53.594;10.034;2024-03-08T13:26:26;101921.72;;;9.26
55038;BMP280;40937;53.594;10.034;2024-03-08T13:28:58;101909.38;;;9.27
55038;BMP280;40937;53.594;10.034;2024-03-08T13:31:25;101906.94;;;9.25
55038;BMP280;40937;53.594;10.034;2024-03-08T13:33:53;101900.97;;;9.16
55038;BMP280;40937;53.594;10.034;2024-03-08T13:36:24;101900.44;;;9.21
55038;BMP280;40937;53.594;10.034;2024-03-08T13:38:56;101892.59;;;9.34
55038;BMP280;40937;53.594;10.034;2024-03-08T13:41:25;101897.19;;;9.19
55038;BMP280;40937;53.594;10.034;2024-03-08T13:43:52;101880.38;;;9.20
55038;BMP280;40937;53.594;10.034;2024-03-08T13:46:21;101875.50;;;9.24
55038;BMP280;40937;53.594;10.034;2024-03-08T13:48:50;101870.06;;;9.25
55038;BMP280;40937;53.594;10.034;2024-03-08T13:51:19;101870.69;;;9.27
55038;BMP280;40937;53.594;10.034;2024-03-08T13:53:48;101852.97;;;9.08
55038;BMP280;40937;53.594;10.034;2024-03-08T13:56:17;101859.38;;;8.99
55038;BMP280;40937;53.594;10.034;2024-03-08T13:58:44;101857.69;;;8.91
55038;BMP280;40937;53.594;10.034;2024-03-08T14:01:11;101838.19;;;8.85
55038;BMP280;40937;53.594;10.034;2024-03-08T14:03:38;101849.63;;;8.92